Time;durP1;ratioP1;P1;durP2;ratioP2;P2;SDS_P1;SDS_P2;PMS_P1;PMS_P2;Temp;Humidity;BMP_temperature;BMP_pressure;BME280_temperature;BME280_humidity;BME280_pressure;Samples;Min_cycle;Max_cycle;Signal;HPM_P1;HPM_P2
2022/12/07 00:01:41;;;;;;;12.65;6.13;;;6.50;89.70;;;;;;5113597;28;20024;-75
2022/12/07 00:04:09;;;;;;;10.68;6.00;;;6.40;89.90;;;;;;5113636;28;20016;-75
2022/12/07 00:06:37;;;;;;;11.95;6.38;;;6.40;90.00;;;;;;5114553;28;20024;-75
2022/12/07 00:09:07;;;;;;;12.65;6.35;;;6.40;90.00;;;;;;5114445;28;20032;-75
2022/12/07 00:11:33;;;;;;;10.57;6.28;;;6.40;90.00;;;;;;5114444;28;20027;-75
2022/12/07 00:14:02;;;;;;;10.45;6.10;;;6.40;90.10;;;;;;5114404;28;20028;-75
2022/12/07 00:16:31;;;;;;;13.25;6.70;;;6.40;90.10;;;;;;5113251;28;20031;-75
2022/12/07 00:18:57;;;;;;;13.52;6.85;;;6.40;90.00;;;;;;5114351;28;20012;-75
2022/12/07 00:21:25;;;;;;;13.02;6.45;;;6.30;90.00;;;;;;5114430;28;20028;-75
2022/12/07 00:23:52;;;;;;;14.73;7.07;;;6.30;90.10;;;;;;5113728;28;20028;-75
2022/12/07 00:26:34;;;;;;;11.38;6.72;;;6.30;90.00;;;;;;5114065;28;20024;-75
2022/12/07 00:29:21;;;;;;;11.77;6.47;;;6.30;90.00;;;;;;5113282;28;20020;-75
2022/12/07 00:31:47;;;;;;;10.45;5.88;;;6.30;90.00;;;;;;5114319;28;20016;-75
2022/12/07 00:34:16;;;;;;;13.85;6.57;;;6.30;90.00;;;;;;5113206;28;20028;-75
2022/12/07 00:36:42;;;;;;;13.57;6.82;;;6.30;90.00;;;;;;5113926;28;20035;-75
2022/12/07 00:39:08;;;;;;;11.15;6.03;;;6.20;90.00;;;;;;5113036;28;20047;-76
2022/12/07 00:41:34;;;;;;;12.15;6.60;;;6.20;90.00;;;;;;5113988;28;20030;-75
2022/12/07 00:43:59;;;;;;;12.45;6.00;;;6.20;90.00;;;;;;5113894;28;20028;-75
2022/12/07 00:46:26;;;;;;;14.77;6.90;;;6.20;90.00;;;;;;5113862;28;20053;-75
2022/12/07 00:48:52;;;;;;;13.68;7.03;;;6.20;90.00;;;;;;5113822;28;20032;-75
2022/12/07 00:51:21;;;;;;;12.02;6.68;;;6.20;90.10;;;;;;5113804;28;20023;-75
2022/12/07 00:53:48;;;;;;;11.43;6.85;;;6.20;90.00;;;;;;5113892;28;20020;-75
2022/12/07 00:56:16;;;;;;;11.73;6.55;;;6.20;90.00;;;;;;5095842;28;20039;-75
2022/12/07 00:58:42;;;;;;;11.57;6.82;;;6.10;90.00;;;;;;5113684;28;20020;-75
2022/12/07 01:01:09;;;;;;;12.77;7.05;;;6.20;90.00;;;;;;5113691;28;20049;-75
2022/12/07 01:03:35;;;;;;;16.10;7.13;;;6.20;90.10;;;;;;5113630;28;20375;-75
2022/12/07 01:06:01;;;;;;;13.88;6.68;;;6.20;90.10;;;;;;5112519;28;20016;-75
2022/12/07 01:08:27;;;;;;;13.30;6.82;;;6.20;90.60;;;;;;5113500;28;20028;-75
2022/12/07 01:10:59;;;;;;;11.70;6.95;;;6.20;90.20;;;;;;5112638;28;20057;-75
2022/12/07 01:13:25;;;;;;;11.77;7.00;;;6.20;90.20;;;;;;5113567;28;20065;-75
2022/12/07 01:15:50;;;;;;;11.48;6.75;;;6.20;90.20;;;;;;5113515;28;20032;-75
2022/12/07 01:18:16;;;;;;;15.50;6.75;;;6.20;90.10;;;;;;5112511;28;20054;-75
2022/12/07 01:20:42;;;;;;;12.00;6.63;;;6.20;90.20;;;;;;5112539;28;20032;-75
2022/12/07 01:23:07;;;;;;;13.60;6.75;;;6.20;90.10;;;;;;5113443;28;20023;-75
2022/12/07 01:25:33;;;;;;;12.18;6.80;;;6.20;90.40;;;;;;5095582;28;20117;-75
2022/12/07 01:27:59;;;;;;;12.50;7.07;;;6.20;90.00;;;;;;5095600;28;20024;-75
2022/12/07 01:30:24;;;;;;;14.13;7.13;;;6.10;90.00;;;;;;5095571;28;20055;-75
2022/12/07 01:32:50;;;;;;;11.43;6.25;;;6.10;89.90;;;;;;5113375;28;20410;-75
2022/12/07 01:35:16;;;;;;;15.65;7.20;;;6.10;89.90;;;;;;5113754;28;20052;-75
2022/12/07 01:37:42;;;;;;;14.73;6.60;;;6.00;90.00;;;;;;5117354;28;20027;-75
2022/12/07 01:40:10;;;;;;;13.88;6.97;;;6.00;90.00;;;;;;5116411;28;20496;-75
2022/12/07 01:42:35;;;;;;;13.20;6.85;;;6.00;90.00;;;;;;5117264;28;20054;-75
2022/12/07 01:45:32;;;;;;;11.93;6.55;;;5.90;90.00;;;;;;5117312;28;20032;-75
2022/12/07 01:47:58;;;;;;;13.80;6.80;;;5.90;90.10;;;;;;5116422;28;20028;-75
2022/12/07 01:50:27;;;;;;;12.60;6.20;;;6.00;90.00;;;;;;5116206;28;20058;-75
2022/12/07 01:52:55;;;;;;;13.18;6.75;;;5.90;90.00;;;;;;5117141;28;20028;-75
2022/12/07 01:55:20;;;;;;;11.70;6.47;;;5.90;90.00;;;;;;5117092;28;20020;-75
2022/12/07 01:57:50;;;;;;;15.40;7.00;;;5.90;90.10;;;;;;5117108;28;20039;-75
2022/12/07 02:00:17;;;;;;;15.45;7.60;;;5.90;90.10;;;;;;5117065;28;20039;-75
2022/12/07 02:02:53;;;;;;;15.48;7.22;;;5.90;90.10;;;;;;5099051;28;20024;-75
2022/12/07 02:05:19;;;;;;;9.75;6.07;;;5.90;90.20;;;;;;5115953;28;20046;-75
2022/12/07 02:07:47;;;;;;;13.50;6.47;;;5.90;90.10;;;;;;5116795;28;20024;-75
2022/12/07 02:10:18;;;;;;;11.38;6.40;;;5.80;90.10;;;;;;5116820;28;20024;-75
2022/12/07 02:12:48;;;;;;;11.98;6.18;;;5.80;90.00;;;;;;5116892;28;20020;-76
2022/12/07 02:15:14;;;;;;;10.45;6.18;;;5.80;90.00;;;;;;5116707;28;20016;-75
2022/12/07 02:18:02;;;;;;;12.82;6.25;;;5.90;90.00;;;;;;5116631;28;20031;-75
2022/12/07 02:20:32;;;;;;;11.05;6.40;;;5.80;89.80;;;;;;5116680;28;20050;-75
2022/12/07 02:23:19;;;;;;;10.68;6.10;;;5.80;89.90;;;;;;5115556;28;20020;-75
2022/12/07 02:26:16;;;;;;;16.08;6.57;;;5.80;89.90;;;;;;5116545;28;20043;-75
2022/12/07 02:29:10;;;;;;;13.52;6.50;;;5.80;89.80;;;;;;5115595;28;20032;-75
2022/12/07 02:31:39;;;;;;;13.10;6.05;;;5.80;89.60;;;;;;5116437;28;20028;-75
2022/12/07 02:34:12;;;;;;;12.52;5.70;;;5.70;89.60;;;;;;5116468;28;20024;-75
2022/12/07 02:36:45;;;;;;;11.15;6.05;;;5.70;89.40;;;;;;5116282;28;20024;-75
2022/12/07 02:39:28;;;;;;;10.77;5.90;;;5.70;89.60;;;;;;5115131;28;20017;-75
2022/12/07 02:42:00;;;;;;;12.18;5.47;;;5.60;90.20;;;;;;5116396;28;20028;-75
2022/12/07 02:44:28;;;;;;;11.52;6.35;;;5.60;89.80;;;;;;5116318;28;20035;-75
2022/12/07 02:47:05;;;;;;;13.65;5.45;;;5.60;89.60;;;;;;5115705;28;20025;-75
2022/12/07 02:49:31;;;;;;;11.05;5.50;;;5.60;89.60;;;;;;5116133;28;20024;-75
2022/12/07 02:51:57;;;;;;;13.40;5.40;;;5.50;89.80;;;;;;5115075;28;20031;-75
2022/12/07 02:54:23;;;;;;;13.82;5.63;;;5.50;89.80;;;;;;5115980;28;20091;-75
2022/12/07 02:56:48;;;;;;;12.55;4.90;;;5.50;89.70;;;;;;5114836;28;20024;-75
2022/12/07 02:59:34;;;;;;;14.13;5.72;;;5.50;89.70;;;;;;5115887;28;20023;-75
2022/12/07 03:02:28;;;;;;;12.23;5.22;;;5.50;89.50;;;;;;5115849;28;20016;-75
2022/12/07 03:05:21;;;;;;;11.80;5.35;;;5.50;89.10;;;;;;5114867;28;20395;-75
2022/12/07 03:08:28;;;;;;;12.20;5.22;;;5.50;89.00;;;;;;5114698;28;20028;-75
2022/12/07 03:11:13;;;;;;;8.48;4.88;;;5.50;88.90;;;;;;5115741;28;20384;-75
2022/12/07 03:13:47;;;;;;;11.65;4.95;;;5.50;89.20;;;;;;5115658;28;20042;-75
2022/12/07 03:16:21;;;;;;;10.48;5.00;;;5.50;89.10;;;;;;5115630;28;20043;-75
2022/12/07 03:19:05;;;;;;;9.13;4.85;;;5.50;89.10;;;;;;5114610;28;20031;-75
2022/12/07 03:21:39;;;;;;;10.90;5.15;;;5.50;89.10;;;;;;5115620;28;20020;-75
2022/12/07 03:24:15;;;;;;;9.90;5.40;;;5.50;89.10;;;;;;5115454;28;20052;-75
2022/12/07 03:27:15;;;;;;;9.80;4.97;;;5.50;88.90;;;;;;5115400;28;20048;-75
2022/12/07 03:29:49;;;;;;;8.02;4.72;;;5.50;88.70;;;;;;5100523;28;20040;-75
2022/12/07 03:32:26;;;;;;;12.15;5.03;;;5.50;88.50;;;;;;5115294;28;20063;-75
2022/12/07 03:35:03;;;;;;;10.00;4.68;;;5.40;88.60;;;;;;5114218;28;20028;-75
2022/12/07 03:37:39;;;;;;;9.70;4.50;;;5.40;89.00;;;;;;5115041;28;20028;-75
2022/12/07 03:40:45;;;;;;;10.40;5.20;;;5.40;89.10;;;;;;5113958;28;20040;-75
2022/12/07 03:43:11;;;;;;;8.45;4.43;;;5.40;89.30;;;;;;5111755;28;20066;-75
2022/12/07 03:45:43;;;;;;;8.77;4.10;;;5.30;89.60;;;;;;5114991;28;20020;-75
2022/12/07 03:48:40;;;;;;;10.38;4.22;;;5.40;89.60;;;;;;5114037;28;20065;-75
2022/12/07 03:51:21;;;;;;;7.50;4.47;;;5.40;89.70;;;;;;5107046;28;20028;-75
2022/12/07 03:53:53;;;;;;;8.10;4.28;;;5.40;89.70;;;;;;5114997;28;20063;-75
2022/12/07 03:56:20;;;;;;;8.73;4.45;;;5.40;89.70;;;;;;5113870;28;20020;-75
2022/12/07 03:58:46;;;;;;;8.85;4.38;;;5.50;89.70;;;;;;5113998;28;20035;-75
2022/12/07 04:01:11;;;;;;;10.15;4.15;;;5.50;89.60;;;;;;5096535;28;20047;-75
2022/12/07 04:03:37;;;;;;;11.52;4.35;;;5.50;89.70;;;;;;5113709;28;20028;-75
2022/12/07 04:06:03;;;;;;;7.60;3.88;;;5.40;89.60;;;;;;5113680;28;20024;-75
2022/12/07 04:08:29;;;;;;;9.63;4.30;;;5.40;89.80;;;;;;5113623;28;20022;-75
2022/12/07 04:10:54;;;;;;;7.53;3.70;;;5.50;90.00;;;;;;5114487;28;20376;-75
2022/12/07 04:13:20;;;;;;;7.60;4.13;;;5.50;90.00;;;;;;5113600;28;20028;-75
2022/12/07 04:15:45;;;;;;;9.98;4.07;;;5.50;90.00;;;;;;5114415;28;20028;-75
2022/12/07 04:18:11;;;;;;;11.10;4.07;;;5.60;90.10;;;;;;5114283;28;20088;-75
2022/12/07 04:20:37;;;;;;;11.10;4.07;;;5.60;90.00;;;;;;5113303;28;20012;-75
2022/12/07 04:23:02;;;;;;;9.70;4.32;;;5.60;90.00;;;;;;5113338;28;20028;-75
2022/12/07 04:25:28;;;;;;;8.98;4.10;;;5.60;90.10;;;;;;5114394;28;20070;-75
2022/12/07 04:27:53;;;;;;;7.82;4.07;;;5.60;90.10;;;;;;5113311;28;20028;-75
2022/12/07 04:30:19;;;;;;;10.38;4.05;;;5.70;90.10;;;;;;5113328;28;20047;-75
2022/12/07 04:32:45;;;;;;;8.82;3.75;;;5.70;90.00;;;;;;5113166;28;20028;-75
2022/12/07 04:35:10;;;;;;;8.88;3.78;;;5.70;90.00;;;;;;5114067;28;20024;-75
2022/12/07 04:37:38;;;;;;;9.50;4.10;;;5.70;89.80;;;;;;5113959;28;20060;-75
2022/12/07 04:40:05;;;;;;;7.95;3.28;;;5.70;89.80;;;;;;5112794;28;20050;-75
2022/12/07 04:42:31;;;;;;;6.72;3.08;;;5.60;90.10;;;;;;5112953;28;20032;-75
2022/12/07 04:44:56;;;;;;;8.00;3.08;;;5.60;90.30;;;;;;5112919;28;20035;-75
2022/12/07 04:47:22;;;;;;;7.32;3.63;;;5.60;90.30;;;;;;5113040;28;20036;-75
2022/12/07 04:49:47;;;;;;;4.53;2.75;;;5.70;90.40;;;;;;5112819;28;20032;-75
2022/12/07 04:52:13;;;;;;;6.15;3.10;;;5.70;90.40;;;;;;5112923;28;20027;-75
2022/12/07 04:54:38;;;;;;;5.70;2.97;;;5.70;90.40;;;;;;5112757;28;20143;-75
2022/12/07 04:57:04;;;;;;;6.32;2.90;;;5.70;90.30;;;;;;5113674;28;20032;-75
2022/12/07 04:59:30;;;;;;;4.75;2.60;;;5.70;90.30;;;;;;5112886;28;20016;-75
2022/12/07 05:01:55;;;;;;;5.13;3.20;;;5.70;90.30;;;;;;5113663;28;20035;-75
2022/12/07 05:04:21;;;;;;;7.50;3.30;;;5.70;90.20;;;;;;5112736;28;20027;-75
2022/12/07 05:06:46;;;;;;;6.32;3.08;;;5.60;90.20;;;;;;5113614;28;20115;-75
2022/12/07 05:09:12;;;;;;;5.75;2.72;;;5.60;90.10;;;;;;5113541;28;20170;-75
2022/12/07 05:11:37;;;;;;;4.75;2.47;;;5.60;90.10;;;;;;5113322;28;20032;-75
2022/12/07 05:14:06;;;;;;;5.50;3.08;;;5.60;90.20;;;;;;5112542;28;20058;-75
2022/12/07 05:16:31;;;;;;;4.25;2.70;;;5.60;90.10;;;;;;5113454;28;20031;-75
2022/12/07 05:18:57;;;;;;;11.00;3.17;;;5.60;90.10;;;;;;5113505;28;20103;-75
2022/12/07 05:21:23;;;;;;;7.45;2.60;;;5.50;90.10;;;;;;5112423;28;20039;-75
2022/12/07 05:23:49;;;;;;;6.03;3.25;;;5.50;90.10;;;;;;5113456;28;20042;-75
2022/12/07 05:26:15;;;;;;;8.27;2.90;;;5.50;90.20;;;;;;5113412;28;20035;-75
2022/12/07 05:28:40;;;;;;;4.95;2.58;;;5.60;90.10;;;;;;5112384;28;20031;-75
2022/12/07 05:31:06;;;;;;;7.35;2.95;;;5.60;90.10;;;;;;5113394;28;20027;-75
2022/12/07 05:33:32;;;;;;;6.03;2.90;;;5.60;90.10;;;;;;5113393;28;20028;-75
2022/12/07 05:35:57;;;;;;;8.07;2.80;;;5.50;90.10;;;;;;5112410;28;20040;-75
2022/12/07 05:38:24;;;;;;;6.32;2.75;;;5.50;90.10;;;;;;5112336;28;20129;-75
2022/12/07 05:40:50;;;;;;;5.57;2.50;;;5.50;90.10;;;;;;5112160;28;20108;-75
2022/12/07 05:43:16;;;;;;;6.72;3.05;;;5.50;90.10;;;;;;5112309;28;20032;-75
2022/12/07 05:45:41;;;;;;;6.22;3.25;;;5.50;90.20;;;;;;5113285;28;20173;-75
2022/12/07 05:48:07;;;;;;;5.47;3.10;;;5.50;90.60;;;;;;5112237;28;20059;-75
2022/12/07 05:50:33;;;;;;;7.40;2.95;;;5.50;90.20;;;;;;5112219;28;20028;-75
2022/12/07 05:52:58;;;;;;;7.05;3.30;;;5.50;90.70;;;;;;5112277;28;20472;-76
2022/12/07 05:55:24;;;;;;;7.82;3.20;;;5.50;90.60;;;;;;5113114;28;20036;-76
2022/12/07 06:00:33;;;;;;;8.18;3.65;;;5.50;90.20;;;;;;5113259;28;20044;-76
2022/12/07 06:02:59;;;;;;;6.35;3.40;;;5.40;90.20;;;;;;5112228;28;20028;-77
2022/12/07 06:05:25;;;;;;;9.25;4.72;;;5.40;90.20;;;;;;5112112;28;20024;-76
2022/12/07 06:07:50;;;;;;;10.50;5.97;;;5.40;90.20;;;;;;5112202;28;20032;-76
2022/12/07 06:10:16;;;;;;;10.88;5.72;;;5.40;90.20;;;;;;5112158;28;20035;-76
2022/12/07 06:12:42;;;;;;;7.95;4.22;;;5.40;90.20;;;;;;5112106;28;20053;-76
2022/12/07 06:15:09;;;;;;;6.70;3.38;;;5.40;90.30;;;;;;5112043;28;20421;-76
2022/12/07 06:17:36;;;;;;;17.95;9.20;;;5.40;90.40;;;;;;5112872;28;20076;-76
2022/12/07 06:20:02;;;;;;;13.73;5.28;;;5.40;90.40;;;;;;5111931;28;20040;-76
2022/12/07 06:22:28;;;;;;;10.20;4.28;;;5.40;90.50;;;;;;5113532;28;20020;-76
2022/12/07 06:24:53;;;;;;;7.93;3.40;;;5.40;90.50;;;;;;5098654;28;20037;-77
2022/12/07 06:27:19;;;;;;;9.40;3.58;;;5.40;90.60;;;;;;5115570;28;20110;-77
2022/12/07 06:29:45;;;;;;;7.70;3.17;;;5.40;90.60;;;;;;5115768;28;20027;-76
2022/12/07 06:32:11;;;;;;;8.23;2.80;;;5.40;90.60;;;;;;5115538;28;20032;-76
2022/12/07 06:34:37;;;;;;;6.18;3.15;;;5.40;90.60;;;;;;5098814;28;20028;-77
2022/12/07 06:37:03;;;;;;;9.85;3.58;;;5.40;90.50;;;;;;5098325;28;20115;-76
2022/12/07 06:39:29;;;;;;;6.28;3.00;;;5.40;90.80;;;;;;5115279;28;20025;-76
2022/12/07 06:41:55;;;;;;;7.00;3.10;;;5.40;90.40;;;;;;5116299;28;20016;-76
2022/12/07 06:44:22;;;;;;;4.70;2.60;;;5.40;90.40;;;;;;5116229;28;20031;-77
2022/12/07 06:46:48;;;;;;;4.53;2.58;;;5.40;90.30;;;;;;5116149;28;20035;-76
2022/12/07 06:49:14;;;;;;;6.15;2.58;;;5.40;90.30;;;;;;5116088;28;20024;-76
2022/12/07 06:51:42;;;;;;;9.52;3.85;;;5.40;90.30;;;;;;5116051;28;20051;-76
2022/12/07 06:54:12;;;;;;;7.10;2.70;;;5.40;90.70;;;;;;5115013;28;20024;-76
2022/12/07 06:56:38;;;;;;;4.95;2.70;;;5.30;90.30;;;;;;5115945;28;20056;-76
2022/12/07 06:59:06;;;;;;;6.35;2.88;;;5.40;90.30;;;;;;5114992;28;20028;-76
2022/12/07 07:01:32;;;;;;;5.57;2.55;;;5.40;90.20;;;;;;5114949;28;20028;-76
2022/12/07 07:03:58;;;;;;;8.98;2.47;;;5.30;90.20;;;;;;5114819;28;20352;-76
2022/12/07 07:06:24;;;;;;;8.50;2.90;;;5.30;90.20;;;;;;5097869;28;20035;-76
2022/12/07 07:08:51;;;;;;;7.93;2.63;;;5.30;90.20;;;;;;5114705;28;20065;-76
2022/12/07 07:11:17;;;;;;;5.70;2.42;;;5.30;90.20;;;;;;5115727;28;20054;-76
2022/12/07 07:13:42;;;;;;;4.78;2.22;;;5.20;90.20;;;;;;5114709;28;20043;-76
2022/12/07 07:16:08;;;;;;;4.85;2.70;;;5.20;90.30;;;;;;5114687;28;20058;-76
2022/12/07 07:18:34;;;;;;;5.65;2.92;;;5.20;90.30;;;;;;5115600;28;20036;-76
2022/12/07 07:21:00;;;;;;;8.77;3.35;;;5.20;90.40;;;;;;5115519;28;20024;-76
2022/12/07 07:23:26;;;;;;;5.85;2.88;;;5.10;90.40;;;;;;5114389;28;20028;-76
2022/12/07 07:25:52;;;;;;;5.97;3.80;;;5.20;90.40;;;;;;5097572;28;20028;-80
2022/12/07 07:28:18;;;;;;;9.00;3.92;;;5.20;90.30;;;;;;5114310;28;20055;-77
2022/12/07 07:30:44;;;;;;;8.07;3.33;;;5.20;90.30;;;;;;5115290;28;20028;-76
2022/12/07 07:33:10;;;;;;;7.72;3.05;;;5.10;90.30;;;;;;5114984;28;20031;-76
2022/12/07 07:35:36;;;;;;;7.00;3.20;;;5.10;90.30;;;;;;5115212;28;20036;-76
2022/12/07 07:38:02;;;;;;;8.27;2.45;;;5.10;90.40;;;;;;5114130;28;20046;-76
2022/12/07 07:40:30;;;;;;;7.18;3.00;;;5.10;90.30;;;;;;5114939;28;20055;-76
2022/12/07 07:42:56;;;;;;;8.23;2.83;;;5.00;90.30;;;;;;5114018;28;20028;-76
2022/12/07 07:45:24;;;;;;;7.43;2.65;;;5.10;90.40;;;;;;5115004;28;20032;-76
2022/12/07 07:47:50;;;;;;;4.50;2.40;;;5.00;90.30;;;;;;5114895;28;20057;-76
2022/12/07 07:50:16;;;;;;;5.20;3.05;;;5.00;90.30;;;;;;5113977;28;20024;-76
2022/12/07 07:52:43;;;;;;;7.22;3.25;;;5.00;90.40;;;;;;5113912;28;20039;-76
2022/12/07 07:55:10;;;;;;;6.38;3.30;;;5.00;90.40;;;;;;5114844;28;20031;-73
2022/12/07 08:04:25;;;;;;;7.18;3.35;;;5.10;90.30;;;;;;5047463;28;20094;-76
2022/12/07 08:10:14;;;;;;;5.77;2.97;;;5.10;90.30;;;;;;5114693;28;20030;-76
2022/12/07 08:15:28;;;;;;;9.35;3.60;;;5.10;90.30;;;;;;5114498;28;20039;-76
2022/12/07 08:17:53;;;;;;;7.07;2.85;;;5.10;90.30;;;;;;5114272;28;20072;-77
2022/12/07 08:20:19;;;;;;;7.13;3.50;;;5.00;90.20;;;;;;5114493;28;20036;-76
2022/12/07 08:22:45;;;;;;;7.65;3.90;;;5.10;90.30;;;;;;5114319;28;20024;-76
2022/12/07 08:25:10;;;;;;;7.40;3.10;;;5.20;90.30;;;;;;5114298;28;20028;-76
2022/12/07 08:27:42;;;;;;;10.95;3.17;;;5.20;90.20;;;;;;5113432;28;20032;-76
2022/12/07 08:30:08;;;;;;;8.07;3.85;;;5.20;90.10;;;;;;5114139;28;20046;-76
2022/12/07 08:32:34;;;;;;;8.73;3.60;;;5.20;90.20;;;;;;5114083;28;20028;-76
2022/12/07 08:34:59;;;;;;;5.95;3.30;;;5.30;90.20;;;;;;5113049;28;20024;-77
2022/12/07 08:37:25;;;;;;;7.05;3.25;;;5.30;90.20;;;;;;5113015;28;20056;-76
2022/12/07 08:39:50;;;;;;;9.30;3.35;;;5.30;90.20;;;;;;5112799;28;20066;-77
2022/12/07 08:42:16;;;;;;;6.60;3.55;;;5.30;90.10;;;;;;5113068;28;20039;-77
2022/12/07 08:44:43;;;;;;;7.93;4.30;;;5.40;90.30;;;;;;5113787;28;20046;-74
2022/12/07 08:47:11;;;;;;;10.73;3.95;;;5.70;90.40;;;;;;5095660;28;20031;-76
2022/12/07 08:49:41;;;;;;;9.93;4.13;;;6.00;90.30;;;;;;5113825;28;20020;-76
2022/12/07 08:52:07;;;;;;;9.15;4.13;;;6.10;89.70;;;;;;5113823;28;20114;-76
2022/12/07 08:54:36;;;;;;;6.15;3.50;;;6.10;89.40;;;;;;5112676;28;20099;-77
2022/12/07 08:57:02;;;;;;;10.30;4.38;;;6.10;89.20;;;;;;5113680;28;20087;-76
2022/12/07 08:59:29;;;;;;;8.82;4.15;;;6.00;89.00;;;;;;5113705;28;20016;-77
2022/12/07 09:01:54;;;;;;;7.63;4.00;;;5.90;89.30;;;;;;5113657;28;20048;-76
2022/12/07 09:04:20;;;;;;;9.32;4.50;;;6.00;89.40;;;;;;5112691;28;20028;-77
2022/12/07 09:06:47;;;;;;;9.60;4.75;;;6.10;89.30;;;;;;5113646;28;20020;-77
2022/12/07 09:09:13;;;;;;;8.77;4.97;;;6.20;89.10;;;;;;5113554;28;20088;-76
2022/12/07 09:11:40;;;;;;;11.73;5.03;;;6.40;89.20;;;;;;5113536;28;20095;-77
2022/12/07 09:14:06;;;;;;;11.13;5.38;;;6.50;89.00;;;;;;5113480;28;20048;-76
2022/12/07 09:16:31;;;;;;;10.63;4.53;;;6.60;88.70;;;;;;5113401;28;20016;-77
2022/12/07 09:18:57;;;;;;;10.98;5.15;;;6.80;89.00;;;;;;5112382;28;20062;-77
2022/12/07 09:21:25;;;;;;;9.18;4.70;;;7.30;88.90;;;;;;5112749;28;20099;-76
2022/12/07 09:23:53;;;;;;;10.77;4.60;;;8.00;87.20;;;;;;5113902;28;20046;-76
2022/12/07 09:29:26;;;;;;;7.80;3.83;;;7.90;85.10;;;;;;5107830;28;20043;-77
2022/12/07 09:31:52;;;;;;;7.65;3.50;;;7.70;85.10;;;;;;5112695;28;20028;-76
2022/12/07 09:34:18;;;;;;;7.32;3.90;;;7.60;85.40;;;;;;5113272;28;20016;-76
2022/12/07 09:36:44;;;;;;;5.22;3.38;;;7.70;85.40;;;;;;5095508;28;20024;-77
2022/12/07 09:39:10;;;;;;;8.25;3.92;;;7.60;85.10;;;;;;5113278;28;20028;-76
2022/12/07 09:41:42;;;;;;;9.50;4.00;;;7.50;85.20;;;;;;5113065;28;20065;-77
2022/12/07 09:44:13;;;;;;;10.52;3.67;;;7.40;85.60;;;;;;5113399;28;20024;-76
2022/12/07 09:46:42;;;;;;;10.85;3.60;;;7.30;85.80;;;;;;5113281;28;20020;-75
2022/12/07 09:49:25;;;;;;;7.88;4.03;;;7.20;85.60;;;;;;5113217;28;20025;-76
2022/12/07 09:52:25;;;;;;;7.25;3.65;;;7.30;86.10;;;;;;5112271;28;20035;-76
2022/12/07 09:54:51;;;;;;;12.30;4.90;;;7.60;86.40;;;;;;5098396;28;20046;-76
2022/12/07 09:57:20;;;;;;;8.23;3.10;;;8.10;86.70;;;;;;5114168;28;20032;-76
2022/12/07 09:59:46;;;;;;;7.28;4.13;;;8.30;85.00;;;;;;5117071;28;20040;-76
2022/12/07 10:02:38;;;;;;;5.60;3.10;;;8.60;84.40;;;;;;5099101;28;20020;-76
2022/12/07 10:05:12;;;;;;;6.78;3.47;;;8.80;83.50;;;;;;5115984;28;20016;-76
2022/12/07 10:07:37;;;;;;;5.70;3.17;;;8.70;82.60;;;;;;5116887;28;20034;-76
2022/12/07 10:10:24;;;;;;;13.63;4.88;;;8.80;83.10;;;;;;5116877;28;20020;-77
2022/12/07 10:13:10;;;;;;;7.70;3.58;;;9.10;82.60;;;;;;5116759;28;20024;-76
2022/12/07 10:15:54;;;;;;;6.15;2.65;;;9.70;82.00;;;;;;5116665;28;20042;-76
2022/12/07 10:18:19;;;;;;;3.83;2.33;;;9.90;80.00;;;;;;5116798;28;20034;-76
2022/12/07 10:20:48;;;;;;;4.18;2.65;;;9.80;79.30;;;;;;5116634;28;20040;-76
2022/12/07 10:23:18;;;;;;;8.45;2.50;;;9.50;79.70;;;;;;5115526;28;20024;-76
2022/12/07 10:25:44;;;;;;;5.93;2.42;;;9.30;79.80;;;;;;5116491;28;20035;-76
2022/12/07 10:28:33;;;;;;;6.88;2.30;;;9.10;80.80;;;;;;5116522;28;20089;-75
2022/12/07 10:31:17;;;;;;;5.80;2.08;;;8.90;81.20;;;;;;5115634;28;20075;-76
2022/12/07 10:33:50;;;;;;;7.82;2.22;;;8.70;81.80;;;;;;5115682;28;20498;-76
2022/12/07 10:36:18;;;;;;;6.10;2.25;;;8.50;82.50;;;;;;5116487;28;20028;-76
2022/12/07 10:38:50;;;;;;;3.20;2.00;;;8.40;83.20;;;;;;5115249;28;20024;-76
2022/12/07 10:41:16;;;;;;;7.13;2.30;;;8.30;83.60;;;;;;5114983;28;20040;-75
2022/12/07 10:43:54;;;;;;;4.93;2.05;;;8.20;83.90;;;;;;5116231;28;20061;-82
2022/12/07 10:46:46;;;;;;;3.88;1.80;;;8.10;84.20;;;;;;5116322;28;20020;-78
2022/12/07 10:50:13;;;;;;;7.45;2.38;;;8.00;84.20;;;;;;5034169;28;20042;-78
2022/12/07 10:59:55;;;;;;;5.50;1.73;;;7.80;85.40;;;;;;5094017;28;20067;-76
2022/12/07 11:02:21;;;;;;;;;;;7.70;85.80;;;;;;5077377;28;20033;-77
2022/12/07 11:04:57;;;;;;;5.10;2.40;;;7.70;86.40;;;;;;5077050;28;19912;-76
2022/12/07 11:07:41;;;;;;;8.15;2.30;;;7.70;86.70;;;;;;5093787;28;20045;-76
2022/12/07 11:10:26;;;;;;;8.20;1.90;;;7.80;86.80;;;;;;5076332;28;20028;-77
2022/12/07 11:13:04;;;;;;;2.85;1.67;;;7.80;86.60;;;;;;5093001;28;20037;-76
2022/12/07 11:16:20;;;;;;;4.28;1.75;;;7.80;86.10;;;;;;5093410;28;20029;-76
2022/12/07 11:19:07;;;;;;;3.58;1.65;;;7.80;86.20;;;;;;5033285;28;20051;-77
2022/12/07 11:21:55;;;;;;;3.70;1.58;;;7.80;86.30;;;;;;5076723;28;20051;-77
2022/12/07 11:24:50;;;;;;;8.32;1.83;;;7.80;85.90;;;;;;5110829;28;20032;-77
2022/12/07 11:27:41;;;;;;;5.07;1.60;;;7.80;85.80;;;;;;5114461;28;20088;-77
2022/12/07 11:30:14;;;;;;;4.30;1.55;;;7.80;86.20;;;;;;5114330;28;20024;-77
2022/12/07 11:32:52;;;;;;;7.85;1.48;;;7.80;86.10;;;;;;5114615;28;20336;-77
2022/12/07 11:35:25;;;;;;;5.20;1.80;;;7.80;86.00;;;;;;5115303;28;20024;-77
2022/12/07 11:37:59;;;;;;;4.95;1.40;;;7.80;85.70;;;;;;5115213;28;20088;-77
2022/12/07 11:40:36;;;;;;;4.00;1.52;;;7.80;85.60;;;;;;5114913;28;20047;-77
2022/12/07 11:43:13;;;;;;;7.22;1.63;;;7.80;85.50;;;;;;5114008;28;20047;-77
2022/12/07 11:45:44;;;;;;;11.93;3.55;;;7.80;85.60;;;;;;5114087;28;20036;-76
2022/12/07 11:48:24;;;;;;;6.20;3.13;;;7.80;86.10;;;;;;5115065;28;20069;-77
2022/12/07 11:50:54;;;;;;;4.03;1.85;;;7.90;87.20;;;;;;5115006;28;20038;-77
2022/12/07 11:53:27;;;;;;;5.13;1.95;;;7.90;86.00;;;;;;5115004;28;20046;-77
2022/12/07 11:56:10;;;;;;;5.95;2.08;;;8.00;85.80;;;;;;5114936;28;20053;-77
2022/12/07 11:58:59;;;;;;;8.98;3.08;;;8.10;85.70;;;;;;5114731;28;20023;-77
2022/12/07 12:02:02;;;;;;;4.60;1.70;;;8.20;85.80;;;;;;5113579;28;20023;-77
2022/12/07 12:04:42;;;;;;;3.42;1.38;;;8.30;84.80;;;;;;5113647;28;20031;-77
2022/12/07 12:07:14;;;;;;;2.80;1.45;;;8.40;84.20;;;;;;5114672;28;20080;-76
2022/12/07 12:09:52;;;;;;;4.93;1.83;;;8.30;83.60;;;;;;5114599;28;20024;-76
2022/12/07 12:12:23;;;;;;;6.40;2.05;;;8.30;83.30;;;;;;5114503;28;20045;-78
2022/12/07 12:14:57;;;;;;;4.35;2.00;;;8.30;83.40;;;;;;5114369;28;20081;-76
2022/12/07 12:17:22;;;;;;;8.60;2.85;;;8.20;83.80;;;;;;5114559;28;20080;-76
2022/12/07 12:20:26;;;;;;;7.03;2.35;;;8.30;84.10;;;;;;5112792;28;20027;-76
2022/12/07 12:23:13;;;;;;;6.38;1.70;;;8.20;84.20;;;;;;5114358;28;20020;-77
2022/12/07 12:25:52;;;;;;;4.93;1.98;;;8.20;84.10;;;;;;5114377;28;20016;-76
2022/12/07 12:28:30;;;;;;;8.50;3.90;;;8.10;84.00;;;;;;5113322;28;20066;-77
2022/12/07 12:31:07;;;;;;;4.53;2.00;;;8.10;84.20;;;;;;5113208;28;20020;-77
2022/12/07 12:33:34;;;;;;;3.55;1.90;;;8.10;84.20;;;;;;5114164;28;20043;-76
2022/12/07 12:36:15;;;;;;;5.13;2.28;;;8.00;84.30;;;;;;5113867;28;20098;-76
2022/12/07 12:39:13;;;;;;;7.55;2.78;;;8.00;84.60;;;;;;5112964;28;20027;-76
2022/12/07 12:41:39;;;;;;;7.95;3.90;;;8.00;84.60;;;;;;5113909;28;20028;-76
2022/12/07 12:44:19;;;;;;;4.90;2.08;;;8.00;84.70;;;;;;5113882;28;20016;-76
2022/12/07 12:47:00;;;;;;;5.93;3.10;;;8.00;84.80;;;;;;5113782;28;20028;-76
2022/12/07 12:49:25;;;;;;;4.60;1.95;;;7.90;84.80;;;;;;5114080;28;20028;-77
2022/12/07 12:51:58;;;;;;;5.72;2.15;;;8.00;85.00;;;;;;5113848;28;20063;-76
2022/12/07 12:54:28;;;;;;;;;;;8.00;85.10;;;;;;5113475;28;20028;-76
2022/12/07 12:57:12;;;;;;;8.20;2.22;;;7.90;84.90;;;;;;5113721;28;19929;-76
2022/12/07 12:59:50;;;;;;;3.92;1.55;;;7.90;84.80;;;;;;5113955;28;20150;-76
2022/12/07 13:02:24;;;;;;;5.45;1.88;;;7.90;85.00;;;;;;5113917;28;20024;-76
2022/12/07 13:05:01;;;;;;;6.63;1.80;;;7.90;85.40;;;;;;5113685;28;20031;-76
2022/12/07 13:07:51;;;;;;;4.63;1.60;;;7.80;85.40;;;;;;5112694;28;20031;-76
2022/12/07 13:10:32;;;;;;;3.15;1.40;;;7.80;85.30;;;;;;5113822;28;20024;-76
2022/12/07 13:13:22;;;;;;;2.63;1.20;;;7.80;85.00;;;;;;5113642;28;20020;-76
2022/12/07 13:15:48;;;;;;;7.30;1.42;;;7.90;84.80;;;;;;5099963;28;20065;-76
2022/12/07 13:18:37;;;;;;;3.53;1.00;;;7.90;85.30;;;;;;5113473;28;20028;-76
2022/12/07 13:21:08;;;;;;;3.55;1.15;;;7.90;84.30;;;;;;5113600;28;20074;-76
2022/12/07 13:23:43;;;;;;;1.90;0.90;;;7.90;83.90;;;;;;5113525;28;20055;-76
2022/12/07 13:26:17;;;;;;;6.68;1.00;;;7.90;83.00;;;;;;5113618;28;20024;-74
2022/12/07 13:29:09;;;;;;;2.50;1.00;;;7.90;83.80;;;;;;5113133;28;20059;-77
2022/12/07 13:31:42;;;;;;;1.05;0.52;;;7.90;82.80;;;;;;5105299;28;20086;-77
2022/12/07 13:34:46;;;;;;;4.25;1.25;;;7.80;82.70;;;;;;5116611;28;20020;-77
2022/12/07 13:37:18;;;;;;;1.83;0.65;;;7.90;82.80;;;;;;5035373;28;20042;-77
2022/12/07 13:39:50;;;;;;;0.70;0.57;;;7.90;82.00;;;;;;5019000;28;20030;-77
2022/12/07 13:42:26;;;;;;;1.55;0.70;;;7.90;82.10;;;;;;5079997;28;20040;-77
2022/12/07 13:44:52;;;;;;;0.65;0.45;;;7.90;82.00;;;;;;5117417;28;20013;-77